sensor_id;sensor_type;location;lat;lon;timestamp;temperature;humidity
27667;DHT22;15074;50.940;5.282;2023-05-21T00:00:22;14.70;99.90
27667;DHT22;15074;50.940;5.282;2023-05-21T00:02:47;14.60;99.90
27667;DHT22;15074;50.940;5.282;2023-05-21T00:05:13;14.60;99.90
27667;DHT22;15074;50.940;5.282;2023-05-21T00:07:41;14.60;99.90
27667;DHT22;15074;50.940;5.282;2023-05-21T00:10:07;14.60;99.90
27667;DHT22;15074;50.940;5.282;2023-05-21T00:12:33;14.60;99.90
27667;DHT22;15074;50.940;5.282;2023-05-21T00:14:59;14.60;99.90
27667;DHT22;15074;50.940;5.282;2023-05-21T00:17:26;14.60;99.90
27667;DHT22;15074;50.940;5.282;2023-05-21T00:19:52;14.50;99.90
27667;DHT22;15074;50.940;5.282;2023-05-21T00:22:17;14.60;99.90
27667;DHT22;15074;50.940;5.282;2023-05-21T00:24:44;14.60;99.90
27667;DHT22;15074;50.940;5.282;2023-05-21T00:27:11;14.50;99.90
27667;DHT22;15074;50.940;5.282;2023-05-21T00:29:37;14.40;99.90
27667;DHT22;15074;50.940;5.282;2023-05-21T00:32:03;14.30;99.90
27667;DHT22;15074;50.940;5.282;2023-05-21T00:34:29;14.30;99.90
27667;DHT22;15074;50.940;5.282;2023-05-21T00:36:55;14.30;99.90
27667;DHT22;15074;50.940;5.282;2023-05-21T00:39:22;14.30;99.90
27667;DHT22;15074;50.940;5.282;2023-05-21T00:41:47;14.40;99.90
27667;DHT22;15074;50.940;5.282;2023-05-21T00:44:14;14.20;99.90
27667;DHT22;15074;50.940;5.282;2023-05-21T00:46:41;14.20;99.90
27667;DHT22;15074;50.940;5.282;2023-05-21T00:49:09;14.10;99.90
27667;DHT22;15074;50.940;5.282;2023-05-21T00:51:35;14.10;99.90
27667;DHT22;15074;50.940;5.282;2023-05-21T00:54:01;14.10;99.90
27667;DHT22;15074;50.940;5.282;2023-05-21T00:56:27;14.10;99.90
27667;DHT22;15074;50.940;5.282;2023-05-21T00:58:54;14.20;99.90
27667;DHT22;15074;50.940;5.282;2023-05-21T01:01:22;14.10;99.90
27667;DHT22;15074;50.940;5.282;2023-05-21T01:03:51;14.10;99.90
27667;DHT22;15074;50.940;5.282;2023-05-21T01:06:17;14.00;99.90
27667;DHT22;15074;50.940;5.282;2023-05-21T01:08:45;14.10;99.90
27667;DHT22;15074;50.940;5.282;2023-05-21T01:11:11;14.00;99.90
27667;DHT22;15074;50.940;5.282;2023-05-21T01:13:38;14.00;99.90
27667;DHT22;15074;50.940;5.282;2023-05-21T01:16:05;13.90;99.90
27667;DHT22;15074;50.940;5.282;2023-05-21T01:18:33;13.90;99.90
27667;DHT22;15074;50.940;5.282;2023-05-21T01:21:00;13.90;99.90
27667;DHT22;15074;50.940;5.282;2023-05-21T01:23:26;14.00;99.90
27667;DHT22;15074;50.940;5.282;2023-05-21T01:25:53;14.00;99.90
27667;DHT22;15074;50.940;5.282;2023-05-21T01:28:18;14.10;99.90
27667;DHT22;15074;50.940;5.282;2023-05-21T01:30:44;14.00;99.90
27667;DHT22;15074;50.940;5.282;2023-05-21T01:33:22;14.00;99.90
27667;DHT22;15074;50.940;5.282;2023-05-21T01:35:56;13.90;99.90
27667;DHT22;15074;50.940;5.282;2023-05-21T01:38:26;13.90;99.90
27667;DHT22;15074;50.940;5.282;2023-05-21T01:41:02;13.90;99.90
27667;DHT22;15074;50.940;5.282;2023-05-21T01:43:33;13.90;99.90
27667;DHT22;15074;50.940;5.282;2023-05-21T01:46:01;13.80;99.90
27667;DHT22;15074;50.940;5.282;2023-05-21T01:48:28;13.70;99.90
27667;DHT22;15074;50.940;5.282;2023-05-21T01:51:01;13.70;99.90
27667;DHT22;15074;50.940;5.282;2023-05-21T01:53:27;13.60;99.90
27667;DHT22;15074;50.940;5.282;2023-05-21T01:55:53;13.70;99.90
27667;DHT22;15074;50.940;5.282;2023-05-21T01:58:19;13.60;99.90
27667;DHT22;15074;50.940;5.282;2023-05-21T02:00:45;13.60;99.90
27667;DHT22;15074;50.940;5.282;2023-05-21T02:03:12;13.60;99.90
27667;DHT22;15074;50.940;5.282;2023-05-21T02:05:39;13.60;99.90
27667;DHT22;15074;50.940;5.282;2023-05-21T02:08:05;13.60;99.90
27667;DHT22;15074;50.940;5.282;2023-05-21T02:10:33;13.60;99.90
27667;DHT22;15074;50.940;5.282;2023-05-21T02:12:58;13.60;99.90
27667;DHT22;15074;50.940;5.282;2023-05-21T02:15:24;13.50;99.90
27667;DHT22;15074;50.940;5.282;2023-05-21T02:17:50;13.50;99.90
27667;DHT22;15074;50.940;5.282;2023-05-21T02:20:16;13.50;99.90
27667;DHT22;15074;50.940;5.282;2023-05-21T02:22:46;13.50;99.90
27667;DHT22;15074;50.940;5.282;2023-05-21T02:25:14;13.40;99.90
27667;DHT22;15074;50.940;5.282;2023-05-21T02:27:40;13.40;99.90
27667;DHT22;15074;50.940;5.282;2023-05-21T02:30:12;13.50;99.90
27667;DHT22;15074;50.940;5.282;2023-05-21T02:32:38;13.50;99.90
27667;DHT22;15074;50.940;5.282;2023-05-21T02:35:08;13.50;99.90
27667;DHT22;15074;50.940;5.282;2023-05-21T02:37:35;13.50;99.90
27667;DHT22;15074;50.940;5.282;2023-05-21T02:40:03;13.50;99.90
27667;DHT22;15074;50.940;5.282;2023-05-21T02:42:30;13.40;99.90
27667;DHT22;15074;50.940;5.282;2023-05-21T02:44:56;13.50;99.90
27667;DHT22;15074;50.940;5.282;2023-05-21T02:47:22;13.40;99.90
27667;DHT22;15074;50.940;5.282;2023-05-21T02:49:49;13.30;99.90
27667;DHT22;15074;50.940;5.282;2023-05-21T02:52:17;13.30;99.90
27667;DHT22;15074;50.940;5.282;2023-05-21T02:54:43;13.30;99.90
27667;DHT22;15074;50.940;5.282;2023-05-21T02:57:09;13.30;99.90
27667;DHT22;15074;50.940;5.282;2023-05-21T02:59:35;13.20;99.90
27667;DHT22;15074;50.940;5.282;2023-05-21T03:02:00;13.30;99.90
27667;DHT22;15074;50.940;5.282;2023-05-21T03:04:26;13.40;99.90
27667;DHT22;15074;50.940;5.282;2023-05-21T03:06:53;13.40;99.90
27667;DHT22;15074;50.940;5.282;2023-05-21T03:09:19;13.40;99.90
27667;DHT22;15074;50.940;5.282;2023-05-21T03:11:46;13.40;99.90
27667;DHT22;15074;50.940;5.282;2023-05-21T03:14:12;13.30;99.90
27667;DHT22;15074;50.940;5.282;2023-05-21T03:16:37;13.40;99.90
27667;DHT22;15074;50.940;5.282;2023-05-21T03:19:08;13.30;99.90
27667;DHT22;15074;50.940;5.282;2023-05-21T03:21:35;13.30;99.90
27667;DHT22;15074;50.940;5.282;2023-05-21T03:24:03;13.40;99.90
27667;DHT22;15074;50.940;5.282;2023-05-21T03:26:29;13.30;99.90
27667;DHT22;15074;50.940;5.282;2023-05-21T03:28:56;13.30;99.90
27667;DHT22;15074;50.940;5.282;2023-05-21T03:31:23;13.40;99.90
27667;DHT22;15074;50.940;5.282;2023-05-21T03:33:49;13.30;99.90
27667;DHT22;15074;50.940;5.282;2023-05-21T03:36:16;13.20;99.90
27667;DHT22;15074;50.940;5.282;2023-05-21T03:38:41;13.20;99.90
27667;DHT22;15074;50.940;5.282;2023-05-21T03:41:07;13.30;99.90
27667;DHT22;15074;50.940;5.282;2023-05-21T03:43:33;13.20;99.90
27667;DHT22;15074;50.940;5.282;2023-05-21T03:45:59;13.10;99.90
27667;DHT22;15074;50.940;5.282;2023-05-21T03:48:25;13.10;99.90
27667;DHT22;15074;50.940;5.282;2023-05-21T03:50:50;13.20;99.90
27667;DHT22;15074;50.940;5.282;2023-05-21T03:53:16;13.30;99.90
27667;DHT22;15074;50.940;5.282;2023-05-21T03:55:42;13.30;99.90
27667;DHT22;15074;50.940;5.282;2023-05-21T03:58:08;13.40;99.90
27667;DHT22;15074;50.940;5.282;2023-05-21T04:00:35;13.40;99.90
27667;DHT22;15074;50.940;5.282;2023-05-21T04:03:05;13.50;99.90
27667;DHT22;15074;50.940;5.282;2023-05-21T04:05:31;13.40;99.90
27667;DHT22;15074;50.940;5.282;2023-05-21T04:07:58;13.40;99.90
27667;DHT22;15074;50.940;5.282;2023-05-21T04:10:24;13.40;99.90
27667;DHT22;15074;50.940;5.282;2023-05-21T04:12:51;13.50;99.90
27667;DHT22;15074;50.940;5.282;2023-05-21T04:15:17;13.50;99.90
27667;DHT22;15074;50.940;5.282;2023-05-21T04:17:44;13.40;99.90
27667;DHT22;15074;50.940;5.282;2023-05-21T04:20:11;13.40;99.90
27667;DHT22;15074;50.940;5.282;2023-05-21T04:22:38;13.40;99.90
27667;DHT22;15074;50.940;5.282;2023-05-21T04:25:04;13.50;99.90
27667;DHT22;15074;50.940;5.282;2023-05-21T04:27:29;13.50;99.90
27667;DHT22;15074;50.940;5.282;2023-05-21T04:29:55;13.50;99.90
27667;DHT22;15074;50.940;5.282;2023-05-21T04:32:22;13.60;99.90
27667;DHT22;15074;50.940;5.282;2023-05-21T04:34:48;13.60;99.90
27667;DHT22;15074;50.940;5.282;2023-05-21T04:37:14;13.60;99.90
27667;DHT22;15074;50.940;5.282;2023-05-21T04:39:42;13.60;99.90
27667;DHT22;15074;50.940;5.282;2023-05-21T04:42:08;13.60;99.90
27667;DHT22;15074;50.940;5.282;2023-05-21T04:44:38;13.60;99.90
27667;DHT22;15074;50.940;5.282;2023-05-21T04:47:05;13.60;99.90
27667;DHT22;15074;50.940;5.282;2023-05-21T04:49:30;13.70;99.90
27667;DHT22;15074;50.940;5.282;2023-05-21T04:51:56;13.70;99.90
27667;DHT22;15074;50.940;5.282;2023-05-21T04:54:22;13.70;99.90
27667;DHT22;15074;50.940;5.282;2023-05-21T04:56:47;13.80;99.90
27667;DHT22;15074;50.940;5.282;2023-05-21T04:59:13;14.00;99.90
27667;DHT22;15074;50.940;5.282;2023-05-21T05:01:40;14.10;99.90
27667;DHT22;15074;50.940;5.282;2023-05-21T05:04:08;14.20;99.90
27667;DHT22;15074;50.940;5.282;2023-05-21T05:06:34;14.10;99.90
27667;DHT22;15074;50.940;5.282;2023-05-21T05:08:59;14.20;99.90
27667;DHT22;15074;50.940;5.282;2023-05-21T05:11:25;14.20;99.90
27667;DHT22;15074;50.940;5.282;2023-05-21T05:13:51;14.30;99.90
27667;DHT22;15074;50.940;5.282;2023-05-21T05:16:17;14.40;99.90
27667;DHT22;15074;50.940;5.282;2023-05-21T05:18:52;14.40;99.90
27667;DHT22;15074;50.940;5.282;2023-05-21T05:21:19;14.60;99.90
27667;DHT22;15074;50.940;5.282;2023-05-21T05:23:44;14.60;99.90
27667;DHT22;15074;50.940;5.282;2023-05-21T05:26:10;14.80;99.90
27667;DHT22;15074;50.940;5.282;2023-05-21T05:28:36;14.80;99.90
27667;DHT22;15074;50.940;5.282;2023-05-21T05:31:01;14.90;99.90
27667;DHT22;15074;50.940;5.282;2023-05-21T05:33:27;15.00;99.90
27667;DHT22;15074;50.940;5.282;2023-05-21T05:35:53;15.20;99.90
27667;DHT22;15074;50.940;5.282;2023-05-21T05:38:18;15.50;99.90
27667;DHT22;15074;50.940;5.282;2023-05-21T05:40:44;15.50;99.90
27667;DHT22;15074;50.940;5.282;2023-05-21T05:43:10;15.70;99.90
27667;DHT22;15074;50.940;5.282;2023-05-21T05:45:36;15.90;99.90
27667;DHT22;15074;50.940;5.282;2023-05-21T05:48:01;16.30;99.90
27667;DHT22;15074;50.940;5.282;2023-05-21T05:50:27;16.80;99.90
27667;DHT22;15074;50.940;5.282;2023-05-21T05:52:53;16.80;99.90
27667;DHT22;15074;50.940;5.282;2023-05-21T05:55:18;16.80;99.90
27667;DHT22;15074;50.940;5.282;2023-05-21T05:57:44;16.80;99.90
27667;DHT22;15074;50.940;5.282;2023-05-21T06:00:10;16.60;99.90
27667;DHT22;15074;50.940;5.282;2023-05-21T06:02:36;16.50;99.90
27667;DHT22;15074;50.940;5.282;2023-05-21T06:05:02;16.80;99.90
27667;DHT22;15074;50.940;5.282;2023-05-21T06:07:28;17.10;99.90
27667;DHT22;15074;50.940;5.282;2023-05-21T06:09:54;17.00;99.90
27667;DHT22;15074;50.940;5.282;2023-05-21T06:12:20;16.80;99.90
27667;DHT22;15074;50.940;5.282;2023-05-21T06:14:45;16.60;99.90
27667;DHT22;15074;50.940;5.282;2023-05-21T06:17:13;16.60;99.90
27667;DHT22;15074;50.940;5.282;2023-05-21T06:19:39;16.50;99.90
27667;DHT22;15074;50.940;5.282;2023-05-21T06:22:05;16.80;99.90
27667;DHT22;15074;50.940;5.282;2023-05-21T06:24:30;17.20;99.90
27667;DHT22;15074;50.940;5.282;2023-05-21T06:26:56;17.50;99.90
27667;DHT22;15074;50.940;5.282;2023-05-21T06:29:21;17.60;99.90
27667;DHT22;15074;50.940;5.282;2023-05-21T06:31:47;18.10;99.90
27667;DHT22;15074;50.940;5.282;2023-05-21T06:34:13;18.00;99.90
27667;DHT22;15074;50.940;5.282;2023-05-21T06:36:38;18.40;99.90
27667;DHT22;15074;50.940;5.282;2023-05-21T06:39:04;18.70;99.90
27667;DHT22;15074;50.940;5.282;2023-05-21T06:41:30;19.20;99.90
27667;DHT22;15074;50.940;5.282;2023-05-21T06:43:55;19.80;99.90
27667;DHT22;15074;50.940;5.282;2023-05-21T06:46:21;20.50;99.90
27667;DHT22;15074;50.940;5.282;2023-05-21T06:48:47;21.10;99.90
27667;DHT22;15074;50.940;5.282;2023-05-21T06:51:12;21.30;99.90
27667;DHT22;15074;50.940;5.282;2023-05-21T06:53:38;21.60;99.90
27667;DHT22;15074;50.940;5.282;2023-05-21T06:56:04;21.40;99.90
27667;DHT22;15074;50.940;5.282;2023-05-21T06:58:30;21.20;99.90
27667;DHT22;15074;50.940;5.282;2023-05-21T07:00:59;20.40;99.90
27667;DHT22;15074;50.940;5.282;2023-05-21T07:03:25;20.30;99.90
27667;DHT22;15074;50.940;5.282;2023-05-21T07:05:55;19.90;99.90
27667;DHT22;15074;50.940;5.282;2023-05-21T07:08:21;20.00;99.90
27667;DHT22;15074;50.940;5.282;2023-05-21T07:10:48;19.90;99.90
27667;DHT22;15074;50.940;5.282;2023-05-21T07:13:14;20.00;99.90
27667;DHT22;15074;50.940;5.282;2023-05-21T07:15:40;19.60;99.90
27667;DHT22;15074;50.940;5.282;2023-05-21T07:18:05;19.60;99.90
27667;DHT22;15074;50.940;5.282;2023-05-21T07:20:31;19.90;99.90
27667;DHT22;15074;50.940;5.282;2023-05-21T07:22:57;20.20;99.90
27667;DHT22;15074;50.940;5.282;2023-05-21T07:25:22;20.80;99.90
27667;DHT22;15074;50.940;5.282;2023-05-21T07:27:48;21.90;99.90
27667;DHT22;15074;50.940;5.282;2023-05-21T07:30:14;23.00;99.90
27667;DHT22;15074;50.940;5.282;2023-05-21T07:32:40;23.60;99.90
27667;DHT22;15074;50.940;5.282;2023-05-21T07:35:06;24.40;99.90
27667;DHT22;15074;50.940;5.282;2023-05-21T07:37:32;25.80;99.90
27667;DHT22;15074;50.940;5.282;2023-05-21T07:39:57;25.90;99.90
27667;DHT22;15074;50.940;5.282;2023-05-21T07:42:24;25.20;99.90
27667;DHT22;15074;50.940;5.282;2023-05-21T07:44:50;25.40;99.90
27667;DHT22;15074;50.940;5.282;2023-05-21T07:47:15;25.10;99.90
27667;DHT22;15074;50.940;5.282;2023-05-21T07:49:41;24.40;99.90
27667;DHT22;15074;50.940;5.282;2023-05-21T07:52:07;24.20;99.90
27667;DHT22;15074;50.940;5.282;2023-05-21T07:54:33;23.50;99.90
27667;DHT22;15074;50.940;5.282;2023-05-21T07:56:59;23.90;99.90
27667;DHT22;15074;50.940;5.282;2023-05-21T07:59:27;24.00;99.90
27667;DHT22;15074;50.940;5.282;2023-05-21T08:01:53;24.70;99.90
27667;DHT22;15074;50.940;5.282;2023-05-21T08:04:19;24.90;99.90
27667;DHT22;15074;50.940;5.282;2023-05-21T08:06:45;25.00;99.90
27667;DHT22;15074;50.940;5.282;2023-05-21T08:09:13;24.80;99.90
27667;DHT22;15074;50.940;5.282;2023-05-21T08:11:38;24.70;99.90
27667;DHT22;15074;50.940;5.282;2023-05-21T08:14:04;25.10;99.90
27667;DHT22;15074;50.940;5.282;2023-05-21T08:16:30;25.70;99.90
27667;DHT22;15074;50.940;5.282;2023-05-21T08:18:56;25.30;99.90
27667;DHT22;15074;50.940;5.282;2023-05-21T08:21:21;24.00;99.90
27667;DHT22;15074;50.940;5.282;2023-05-21T08:23:47;24.30;99.90
27667;DHT22;15074;50.940;5.282;2023-05-21T08:26:13;24.10;99.90
27667;DHT22;15074;50.940;5.282;2023-05-21T08:28:42;24.10;99.90
27667;DHT22;15074;50.940;5.282;2023-05-21T08:31:08;23.80;99.90
27667;DHT22;15074;50.940;5.282;2023-05-21T08:33:37;23.80;99.90
27667;DHT22;15074;50.940;5.282;2023-05-21T08:36:07;24.40;99.90
27667;DHT22;15074;50.940;5.282;2023-05-21T08:38:35;24.50;99.90
27667;DHT22;15074;50.940;5.282;2023-05-21T08:41:03;24.10;99.90
27667;DHT22;15074;50.940;5.282;2023-05-21T08:43:30;24.40;99.90
27667;DHT22;15074;50.940;5.282;2023-05-21T08:45:56;24.70;99.90
27667;DHT22;15074;50.940;5.282;2023-05-21T08:48:25;25.70;99.90
27667;DHT22;15074;50.940;5.282;2023-05-21T08:50:51;25.80;99.90
27667;DHT22;15074;50.940;5.282;2023-05-21T08:53:17;26.30;99.90
27667;DHT22;15074;50.940;5.282;2023-05-21T08:55:45;27.20;99.90
27667;DHT22;15074;50.940;5.282;2023-05-21T08:58:11;28.00;99.90
27667;DHT22;15074;50.940;5.282;2023-05-21T09:00:38;28.60;99.90
27667;DHT22;15074;50.940;5.282;2023-05-21T09:03:04;28.70;99.50
27667;DHT22;15074;50.940;5.282;2023-05-21T09:05:41;28.30;99.50
27667;DHT22;15074;50.940;5.282;2023-05-21T09:08:30;28.10;99.30
27667;DHT22;15074;50.940;5.282;2023-05-21T09:10:56;28.20;98.90
27667;DHT22;15074;50.940;5.282;2023-05-21T09:13:24;28.10;99.10
27667;DHT22;15074;50.940;5.282;2023-05-21T09:15:50;27.40;99.30
27667;DHT22;15074;50.940;5.282;2023-05-21T09:18:16;26.90;99.80
27667;DHT22;15074;50.940;5.282;2023-05-21T09:20:42;26.90;99.90
27667;DHT22;15074;50.940;5.282;2023-05-21T09:23:08;26.40;99.90
27667;DHT22;15074;50.940;5.282;2023-05-21T09:25:47;26.90;99.90
27667;DHT22;15074;50.940;5.282;2023-05-21T09:28:14;27.00;99.90
27667;DHT22;15074;50.940;5.282;2023-05-21T09:30:50;28.20;99.20
27667;DHT22;15074;50.940;5.282;2023-05-21T09:33:26;28.40;99.00
27667;DHT22;15074;50.940;5.282;2023-05-21T09:35:53;28.50;98.70
27667;DHT22;15074;50.940;5.282;2023-05-21T09:38:23;28.30;98.30
27667;DHT22;15074;50.940;5.282;2023-05-21T09:40:49;27.30;99.70
27667;DHT22;15074;50.940;5.282;2023-05-21T09:43:15;27.40;99.10
27667;DHT22;15074;50.940;5.282;2023-05-21T09:45:54;27.30;99.40
27667;DHT22;15074;50.940;5.282;2023-05-21T09:48:38;27.50;99.10
27667;DHT22;15074;50.940;5.282;2023-05-21T09:51:20;28.20;98.50
27667;DHT22;15074;50.940;5.282;2023-05-21T09:53:55;28.00;98.80
27667;DHT22;15074;50.940;5.282;2023-05-21T09:56:26;29.20;97.70
27667;DHT22;15074;50.940;5.282;2023-05-21T09:58:55;29.20;97.40
27667;DHT22;15074;50.940;5.282;2023-05-21T10:01:22;29.90;96.80
27667;DHT22;15074;50.940;5.282;2023-05-21T10:03:54;30.70;95.90
27667;DHT22;15074;50.940;5.282;2023-05-21T10:06:27;30.70;95.10
27667;DHT22;15074;50.940;5.282;2023-05-21T10:08:54;32.40;94.00
27667;DHT22;15074;50.940;5.282;2023-05-21T10:11:25;32.10;92.90
27667;DHT22;15074;50.940;5.282;2023-05-21T10:14:03;31.10;93.90
27667;DHT22;15074;50.940;5.282;2023-05-21T10:16:31;30.60;94.40
27667;DHT22;15074;50.940;5.282;2023-05-21T10:18:58;31.00;93.40
27667;DHT22;15074;50.940;5.282;2023-05-21T10:21:25;30.40;93.50
27667;DHT22;15074;50.940;5.282;2023-05-21T10:23:51;30.90;93.40
27667;DHT22;15074;50.940;5.282;2023-05-21T10:26:18;29.70;94.30
27667;DHT22;15074;50.940;5.282;2023-05-21T10:28:46;30.90;93.90
27667;DHT22;15074;50.940;5.282;2023-05-21T10:31:13;30.50;93.20
27667;DHT22;15074;50.940;5.282;2023-05-21T10:33:40;30.30;93.50
27667;DHT22;15074;50.940;5.282;2023-05-21T10:36:06;29.60;94.50
27667;DHT22;15074;50.940;5.282;2023-05-21T10:38:33;29.10;95.20
27667;DHT22;15074;50.940;5.282;2023-05-21T10:41:00;30.10;94.80
27667;DHT22;15074;50.940;5.282;2023-05-21T10:52:17;31.20;92.20
27667;DHT22;15074;50.940;5.282;2023-05-21T10:57:59;31.50;92.00
27667;DHT22;15074;50.940;5.282;2023-05-21T11:00:27;31.40;92.70
27667;DHT22;15074;50.940;5.282;2023-05-21T11:02:53;32.00;91.90
27667;DHT22;15074;50.940;5.282;2023-05-21T11:05:55;31.60;91.60
27667;DHT22;15074;50.940;5.282;2023-05-21T11:08:25;31.90;91.30
27667;DHT22;15074;50.940;5.282;2023-05-21T11:10:55;31.40;91.50
27667;DHT22;15074;50.940;5.282;2023-05-21T11:13:23;31.10;92.20
27667;DHT22;15074;50.940;5.282;2023-05-21T11:16:12;31.70;91.40
27667;DHT22;15074;50.940;5.282;2023-05-21T11:23:53;29.90;92.70
27667;DHT22;15074;50.940;5.282;2023-05-21T11:26:21;29.30;93.50
27667;DHT22;15074;50.940;5.282;2023-05-21T11:29:10;29.60;94.40
27667;DHT22;15074;50.940;5.282;2023-05-21T11:31:36;31.20;92.50
27667;DHT22;15074;50.940;5.282;2023-05-21T11:34:19;31.00;92.50
27667;DHT22;15074;50.940;5.282;2023-05-21T11:39:51;32.10;91.20
27667;DHT22;15074;50.940;5.282;2023-05-21T11:42:33;32.80;90.20
27667;DHT22;15074;50.940;5.282;2023-05-21T11:45:03;32.80;90.50
27667;DHT22;15074;50.940;5.282;2023-05-21T11:47:29;32.80;90.50
27667;DHT22;15074;50.940;5.282;2023-05-21T11:50:00;32.80;90.40
27667;DHT22;15074;50.940;5.282;2023-05-21T11:52:28;32.90;90.20
27667;DHT22;15074;50.940;5.282;2023-05-21T11:54:54;32.30;90.00
27667;DHT22;15074;50.940;5.282;2023-05-21T11:57:22;31.20;91.00
27667;DHT22;15074;50.940;5.282;2023-05-21T11:59:48;31.30;91.40
27667;DHT22;15074;50.940;5.282;2023-05-21T12:02:20;31.30;91.80
27667;DHT22;15074;50.940;5.282;2023-05-21T12:04:48;32.60;90.70
27667;DHT22;15074;50.940;5.282;2023-05-21T12:07:15;32.40;90.40
27667;DHT22;15074;50.940;5.282;2023-05-21T12:09:46;32.60;90.60
27667;DHT22;15074;50.940;5.282;2023-05-21T12:12:17;32.00;90.20
27667;DHT22;15074;50.940;5.282;2023-05-21T12:14:54;31.70;90.40
27667;DHT22;15074;50.940;5.282;2023-05-21T12:17:24;31.80;90.40
27667;DHT22;15074;50.940;5.282;2023-05-21T12:19:53;32.20;89.80
27667;DHT22;15074;50.940;5.282;2023-05-21T12:22:19;32.30;90.40
27667;DHT22;15074;50.940;5.282;2023-05-21T12:24:46;30.90;90.70
27667;DHT22;15074;50.940;5.282;2023-05-21T12:27:12;30.20;92.20
27667;DHT22;15074;50.940;5.282;2023-05-21T12:29:45;29.90;92.60
27667;DHT22;15074;50.940;5.282;2023-05-21T12:32:14;29.70;92.40
27667;DHT22;15074;50.940;5.282;2023-05-21T12:34:45;29.90;92.00
27667;DHT22;15074;50.940;5.282;2023-05-21T12:37:25;29.40;92.20
27667;DHT22;15074;50.940;5.282;2023-05-21T12:39:56;29.10;92.40
27667;DHT22;15074;50.940;5.282;2023-05-21T12:42:27;29.30;93.00
27667;DHT22;15074;50.940;5.282;2023-05-21T12:44:59;29.70;93.40
27667;DHT22;15074;50.940;5.282;2023-05-21T12:47:26;30.30;92.30
27667;DHT22;15074;50.940;5.282;2023-05-21T12:50:12;30.40;91.90
27667;DHT22;15074;50.940;5.282;2023-05-21T12:52:39;30.90;91.50
27667;DHT22;15074;50.940;5.282;2023-05-21T12:55:07;31.30;91.50
27667;DHT22;15074;50.940;5.282;2023-05-21T12:57:35;31.30;91.10
27667;DHT22;15074;50.940;5.282;2023-05-21T13:00:04;30.40;91.90
27667;DHT22;15074;50.940;5.282;2023-05-21T13:02:38;29.90;92.20
27667;DHT22;15074;50.940;5.282;2023-05-21T13:05:06;30.20;92.40
27667;DHT22;15074;50.940;5.282;2023-05-21T13:07:33;30.60;91.80
27667;DHT22;15074;50.940;5.282;2023-05-21T13:10:00;30.30;92.60
27667;DHT22;15074;50.940;5.282;2023-05-21T13:12:28;31.40;91.60
27667;DHT22;15074;50.940;5.282;2023-05-21T13:14:56;31.90;91.30
27667;DHT22;15074;50.940;5.282;2023-05-21T13:17:23;32.20;90.90
27667;DHT22;15074;50.940;5.282;2023-05-21T13:20:14;32.70;90.30
27667;DHT22;15074;50.940;5.282;2023-05-21T13:22:42;33.50;88.90
27667;DHT22;15074;50.940;5.282;2023-05-21T13:25:11;32.40;90.40
27667;DHT22;15074;50.940;5.282;2023-05-21T13:27:40;32.40;90.50
27667;DHT22;15074;50.940;5.282;2023-05-21T13:30:06;32.50;90.30
27667;DHT22;15074;50.940;5.282;2023-05-21T13:32:33;31.90;90.40
27667;DHT22;15074;50.940;5.282;2023-05-21T13:34:58;31.70;90.40
27667;DHT22;15074;50.940;5.282;2023-05-21T13:37:24;31.40;90.50
27667;DHT22;15074;50.940;5.282;2023-05-21T13:39:50;31.40;90.90
27667;DHT22;15074;50.940;5.282;2023-05-21T13:42:16;32.00;90.50
27667;DHT22;15074;50.940;5.282;2023-05-21T13:44:42;31.60;90.40
27667;DHT22;15074;50.940;5.282;2023-05-21T13:47:07;31.50;90.80
27667;DHT22;15074;50.940;5.282;2023-05-21T13:49:35;30.90;90.80
27667;DHT22;15074;50.940;5.282;2023-05-21T13:52:01;31.10;90.90
27667;DHT22;15074;50.940;5.282;2023-05-21T13:54:27;30.00;92.30
27667;DHT22;15074;50.940;5.282;2023-05-21T13:56:54;30.40;92.00
27667;DHT22;15074;50.940;5.282;2023-05-21T13:59:19;30.20;92.60
27667;DHT22;15074;50.940;5.282;2023-05-21T14:01:45;30.70;92.30
27667;DHT22;15074;50.940;5.282;2023-05-21T14:04:12;31.30;91.00
27667;DHT22;15074;50.940;5.282;2023-05-21T14:06:38;31.40;90.90
27667;DHT22;15074;50.940;5.282;2023-05-21T14:09:05;31.50;90.80
27667;DHT22;15074;50.940;5.282;2023-05-21T14:11:32;30.90;91.40
27667;DHT22;15074;50.940;5.282;2023-05-21T14:13:58;30.70;92.30
27667;DHT22;15074;50.940;5.282;2023-05-21T14:16:24;31.10;91.90
27667;DHT22;15074;50.940;5.282;2023-05-21T14:18:52;31.30;91.90
27667;DHT22;15074;50.940;5.282;2023-05-21T14:21:18;31.60;91.40
27667;DHT22;15074;50.940;5.282;2023-05-21T14:23:44;31.20;91.60
27667;DHT22;15074;50.940;5.282;2023-05-21T14:26:10;31.00;91.90
27667;DHT22;15074;50.940;5.282;2023-05-21T14:28:35;31.20;90.80
27667;DHT22;15074;50.940;5.282;2023-05-21T14:31:01;31.80;90.70
27667;DHT22;15074;50.940;5.282;2023-05-21T14:33:27;31.60;90.50
27667;DHT22;15074;50.940;5.282;2023-05-21T14:35:52;30.80;91.40
27667;DHT22;15074;50.940;5.282;2023-05-21T14:38:18;31.10;91.30
27667;DHT22;15074;50.940;5.282;2023-05-21T14:40:44;31.80;90.60
27667;DHT22;15074;50.940;5.282;2023-05-21T14:43:10;31.80;90.80
27667;DHT22;15074;50.940;5.282;2023-05-21T14:45:35;32.00;90.50
27667;DHT22;15074;50.940;5.282;2023-05-21T14:48:01;31.70;90.70
27667;DHT22;15074;50.940;5.282;2023-05-21T14:50:36;31.40;91.00
27667;DHT22;15074;50.940;5.282;2023-05-21T14:53:04;31.30;91.50
27667;DHT22;15074;50.940;5.282;2023-05-21T14:55:30;30.00;92.00
27667;DHT22;15074;50.940;5.282;2023-05-21T14:57:57;29.90;92.60
27667;DHT22;15074;50.940;5.282;2023-05-21T15:00:25;29.60;92.50
27667;DHT22;15074;50.940;5.282;2023-05-21T15:02:50;29.00;93.20
27667;DHT22;15074;50.940;5.282;2023-05-21T15:05:17;28.40;93.90
27667;DHT22;15074;50.940;5.282;2023-05-21T15:07:42;28.10;94.50
27667;DHT22;15074;50.940;5.282;2023-05-21T15:10:10;27.70;95.30
27667;DHT22;15074;50.940;5.282;2023-05-21T15:12:36;27.20;96.10
27667;DHT22;15074;50.940;5.282;2023-05-21T15:15:02;27.40;96.00
27667;DHT22;15074;50.940;5.282;2023-05-21T15:17:28;27.80;95.70
27667;DHT22;15074;50.940;5.282;2023-05-21T15:19:55;27.80;96.00
27667;DHT22;15074;50.940;5.282;2023-05-21T15:22:21;27.40;96.40
27667;DHT22;15074;50.940;5.282;2023-05-21T15:24:47;27.20;96.50
27667;DHT22;15074;50.940;5.282;2023-05-21T15:27:14;27.20;96.30
27667;DHT22;15074;50.940;5.282;2023-05-21T15:29:39;27.50;96.10
27667;DHT22;15074;50.940;5.282;2023-05-21T15:32:05;27.70;95.70
27667;DHT22;15074;50.940;5.282;2023-05-21T15:34:31;27.70;95.70
27667;DHT22;15074;50.940;5.282;2023-05-21T15:36:57;27.60;95.90
27667;DHT22;15074;50.940;5.282;2023-05-21T15:39:23;27.50;96.90
27667;DHT22;15074;50.940;5.282;2023-05-21T15:41:48;27.50;96.70
27667;DHT22;15074;50.940;5.282;2023-05-21T15:44:15;27.80;96.70
27667;DHT22;15074;50.940;5.282;2023-05-21T15:46:41;27.80;96.90
27667;DHT22;15074;50.940;5.282;2023-05-21T15:49:10;27.90;96.30
27667;DHT22;15074;50.940;5.282;2023-05-21T15:51:36;27.80;96.60